Forside
METAR-TAF:

METAR-TAF

Lufthavne :

Orsk, Rusland

Breddekreds: 51-04-18N, længdekreds: 058-35-48E, højde: 277 m

Aktuelle vejr

Denne rapport blev lavet for 14 minutter siden, kl. 00:00 UTC
Vind 2 kt fra varierende retninger
Temperatur 16°C
Fugtighed 68%
Tryk 1012 hPa
Sigt 10 km eller mere
ingen skyer under 1500m og ingen cumulonimbus

METAR: UWOR 170000Z VRB01MPS CAVOK 16/10 Q1012 R07/CLRD65 NOSIG RMK QFE734/0979

Tid: 05:14 (00:14 UTC)

Vejrudsigter

Denne rapport blev lavet for 1 time og 14 minutter siden, kl. 23:00 UTC
Foreløbig gælder fra 17 på 00 UTC til 17 på 09 UTC
Vind 10 kt fra østnordøst med vindstød på up til 21 kt
Sigt 10 km eller mere
Spredte skyer i en højde af 2000 ft, Cumulonimbus.
Midlertidig
fra 17 på 00 UTC til 17 på 09 UTC
Vind 14 kt fra øst med vindstød på up til 23 kt
Sigt: 3100 m
Brudte skyer i en højde af 1500 ft, Cumulonimbus.
let regnbyger

TAF: UWOR 162300Z 1700/1709 07005G11MPS 9999 SCT020CB TEMPO 1700/1709 10007G12MPS 3100 -SHRA BKN015CB

Vejrobservationer og prognoser fra mere end 4000 lufthavne (METAR og TAF).

De gule og røde prikker repræsenterer de meteorologiske stationer.

Flyt musen over at se navnet på stationen.

Så klik over at se vejr observationer og prognoser.

At skifte det kort: Klik på de grønne knapper med et sort kors for at zoome ind; på den grønne knap med en bindestreg for at zoome ud; eller på de grønne pile for tilstødende kort.


METAR-TAF: